createdAt,value
2023-04-15T00:01:11.986Z,99947.78
2023-04-15T00:03:39.185Z,99938.06
2023-04-15T00:06:06.145Z,99941.59
2023-04-15T00:08:33.298Z,99940.78
2023-04-15T00:11:06.010Z,99939.84
2023-04-15T00:13:34.157Z,99929.38
2023-04-15T00:16:04.091Z,99929.63
2023-04-15T00:18:31.722Z,99926.78
2023-04-15T00:20:59.346Z,99925.91
2023-04-15T00:23:26.677Z,99940.00
2023-04-15T00:25:53.292Z,99931.31
2023-04-15T00:28:19.975Z,99928.88
2023-04-15T00:30:47.755Z,99931.53
2023-04-15T00:33:16.490Z,99929.59
2023-04-15T00:35:43.350Z,99928.84
2023-04-15T00:38:09.984Z,99934.88
2023-04-15T00:40:36.625Z,99932.25
2023-04-15T00:43:04.377Z,99936.69
2023-04-15T00:45:31.096Z,99931.31
2023-04-15T00:47:58.569Z,99933.84
2023-04-15T00:50:25.413Z,99922.72
2023-04-15T00:52:52.641Z,99932.22
2023-04-15T00:55:19.408Z,99919.13
2023-04-15T00:57:46.536Z,99925.38
2023-04-15T01:00:13.548Z,99923.63
2023-04-15T01:02:40.530Z,99924.53
2023-04-15T01:05:07.775Z,99920.31
2023-04-15T01:07:34.543Z,99909.56
2023-04-15T01:10:01.285Z,99917.66
2023-04-15T01:12:28.235Z,99915.72
2023-04-15T01:14:56.263Z,99911.41
2023-04-15T01:17:24.601Z,99911.41
2023-04-15T01:19:52.202Z,99908.78
2023-04-15T01:22:18.861Z,99910.63
2023-04-15T01:24:57.051Z,99910.63
2023-04-15T01:27:23.747Z,99913.31
2023-04-15T01:29:50.344Z,99906.97
2023-04-15T01:32:17.208Z,99913.97
2023-04-15T01:34:43.882Z,99904.31
2023-04-15T01:37:14.037Z,99901.63
2023-04-15T01:39:41.233Z,99908.69
2023-04-15T01:42:07.980Z,99902.34
2023-04-15T01:44:34.703Z,99904.25
2023-04-15T01:47:01.434Z,99904.31
2023-04-15T01:49:28.445Z,99896.53
2023-04-15T01:51:55.037Z,99906.22
2023-04-15T01:54:21.620Z,99903.59
2023-04-15T01:56:48.254Z,99899.19
2023-04-15T01:59:14.898Z,99898.22
2023-04-15T02:01:42.142Z,99902.63
2023-04-15T02:04:16.401Z,99905.34
2023-04-15T02:06:43.852Z,99908.91
2023-04-15T02:09:10.754Z,99905.13
2023-04-15T02:11:37.639Z,99906.09
2023-04-15T02:14:05.803Z,99905.25
2023-04-15T02:16:33.373Z,99900.00
2023-04-15T02:19:00.625Z,99892.22
2023-04-15T02:21:27.607Z,99899.94
2023-04-15T02:23:54.303Z,99895.69
2023-04-15T02:26:21.095Z,99894.75
2023-04-15T02:28:48.261Z,99898.09
2023-04-15T02:31:15.085Z,99893.84
2023-04-15T02:33:41.780Z,99897.28
2023-04-15T02:36:09.459Z,99893.88
2023-04-15T02:38:36.262Z,99899.00
2023-04-15T02:41:03.264Z,99899.28
2023-04-15T02:43:29.963Z,99897.38
2023-04-15T02:45:57.058Z,99907.91
2023-04-15T02:48:23.889Z,99903.59
2023-04-15T02:50:50.911Z,99900.97
2023-04-15T02:53:17.704Z,99899.34
2023-04-15T02:55:44.415Z,99903.69
2023-04-15T02:58:11.037Z,99899.34
2023-04-15T03:00:39.185Z,99904.63
2023-04-15T03:03:06.723Z,99901.13
2023-04-15T03:05:33.774Z,99905.53
2023-04-15T03:08:05.936Z,99909.03
2023-04-15T03:10:32.712Z,99910.63
2023-04-15T03:12:59.437Z,99910.69
2023-04-15T03:15:26.177Z,99902.72
2023-04-15T03:17:53.186Z,99909.69
2023-04-15T03:20:20.392Z,99901.13
2023-04-15T03:22:47.077Z,99917.03
2023-04-15T03:25:13.711Z,99915.13
2023-04-15T03:27:40.361Z,99912.44
2023-04-15T03:30:08.018Z,99914.38
2023-04-15T03:32:34.757Z,99921.25
2023-04-15T03:35:01.444Z,99924.91
2023-04-15T03:37:28.063Z,99921.66
2023-04-15T03:39:54.719Z,99910.19
2023-04-15T03:42:21.401Z,99907.47
2023-04-15T03:44:48.064Z,99916.16
2023-04-15T03:47:14.673Z,99916.34
2023-04-15T03:49:41.443Z,99921.53
2023-04-15T03:52:08.336Z,99915.56
2023-04-15T03:54:35.070Z,99918.84
2023-04-15T03:57:02.009Z,99923.38
2023-04-15T03:59:28.680Z,99924.22
2023-04-15T04:01:55.577Z,99918.09
2023-04-15T04:04:22.560Z,99920.56
2023-04-15T04:06:49.334Z,99923.34
2023-04-15T04:09:16.238Z,99923.28
2023-04-15T04:11:42.894Z,99926.00
2023-04-15T04:14:09.574Z,99929.50
2023-04-15T04:16:36.431Z,99937.50
2023-04-15T04:19:03.299Z,99931.03
2023-04-15T04:21:30.824Z,99926.88
2023-04-15T04:23:57.428Z,99932.34
2023-04-15T04:26:24.185Z,99934.94
2023-04-15T04:28:50.898Z,99936.66
2023-04-15T04:31:17.630Z,99940.22
2023-04-15T04:33:44.417Z,99934.91
2023-04-15T04:36:11.104Z,99942.69
2023-04-15T04:38:37.748Z,99941.97
2023-04-15T04:41:04.454Z,99940.03
2023-04-15T04:43:31.075Z,99943.69
2023-04-15T04:45:57.894Z,99943.72
2023-04-15T04:48:24.654Z,99942.72
2023-04-15T04:50:51.487Z,99947.22
2023-04-15T04:53:18.317Z,99949.72
2023-04-15T04:55:45.098Z,99951.22
2023-04-15T04:58:11.807Z,99950.22
2023-04-15T05:00:41.813Z,99953.78
2023-04-15T05:03:10.187Z,99948.53
2023-04-15T05:05:39.500Z,99958.03
2023-04-15T05:08:06.264Z,99958.06
2023-04-15T05:10:33.133Z,99955.38
2023-04-15T05:13:00.173Z,99963.09
2023-04-15T05:15:26.992Z,99963.06
2023-04-15T05:18:01.556Z,99960.50
2023-04-15T05:20:29.402Z,99968.38
2023-04-15T05:22:56.040Z,99969.97
2023-04-15T05:25:23.061Z,99967.38
2023-04-15T05:27:49.773Z,99969.81
2023-04-15T05:30:16.872Z,99972.34
2023-04-15T05:32:43.714Z,99974.84
2023-04-15T05:35:10.760Z,99979.16
2023-04-15T05:37:37.421Z,99976.53
2023-04-15T05:40:04.678Z,99978.19
2023-04-15T05:42:31.498Z,99977.09
2023-04-15T05:44:58.361Z,99977.19
2023-04-15T05:47:25.134Z,99971.75
2023-04-15T05:49:51.854Z,99982.03
2023-04-15T05:52:18.548Z,99979.38
2023-04-15T05:54:45.247Z,99974.13
2023-04-15T05:57:12.076Z,99979.09
2023-04-15T05:59:38.968Z,99979.84
2023-04-15T06:02:06.367Z,99978.19
2023-04-15T06:04:33.364Z,99974.50
2023-04-15T06:07:00.634Z,99980.38
2023-04-15T06:09:27.351Z,99980.09
2023-04-15T06:11:54.035Z,99971.09
2023-04-15T06:14:20.835Z,99985.44
2023-04-15T06:16:47.563Z,99978.00
2023-04-15T06:19:14.877Z,99983.78
2023-04-15T06:21:41.978Z,99992.41
2023-04-15T06:24:08.647Z,99984.25
2023-04-15T06:26:35.589Z,99981.25
2023-04-15T06:29:02.409Z,99987.41
2023-04-15T06:31:29.358Z,99987.13
2023-04-15T06:33:56.210Z,99983.25
2023-04-15T06:36:22.946Z,99986.53
2023-04-15T06:38:49.550Z,99990.44
2023-04-15T06:41:16.400Z,99989.78
2023-04-15T06:43:43.365Z,99997.31
2023-04-15T06:46:10.506Z,99998.41
2023-04-15T06:48:37.300Z,99994.34
2023-04-15T06:51:04.162Z,99991.22
2023-04-15T06:53:30.809Z,100005.13
2023-04-15T06:55:57.550Z,100001.78
2023-04-15T06:58:24.230Z,100002.50
2023-04-15T07:00:51.160Z,100005.28
2023-04-15T07:03:17.947Z,100013.31
2023-04-15T07:05:44.877Z,100004.31
2023-04-15T07:08:11.574Z,100006.91
2023-04-15T07:10:38.226Z,100007.59
2023-04-15T07:13:05.743Z,100006.84
2023-04-15T07:15:32.427Z,100015.84
2023-04-15T07:17:59.170Z,100017.69
2023-04-15T07:20:26.047Z,100021.06
2023-04-15T07:22:53.180Z,100013.31
2023-04-15T07:25:19.948Z,100022.09
2023-04-15T07:27:46.834Z,100018.53
2023-04-15T07:30:13.958Z,100018.16
2023-04-15T07:32:41.202Z,100016.91
2023-04-15T07:35:08.469Z,100020.44
2023-04-15T07:37:35.700Z,100022.47
2023-04-15T07:40:02.484Z,100018.09
2023-04-15T07:42:29.371Z,100021.19
2023-04-15T07:44:56.830Z,100028.38
2023-04-15T07:47:23.560Z,100029.81
2023-04-15T07:49:51.527Z,100025.84
2023-04-15T07:52:18.396Z,100025.22
2023-04-15T07:54:45.546Z,100034.56
2023-04-15T07:57:12.210Z,100029.34
2023-04-15T07:59:38.858Z,100034.94
2023-04-15T08:02:05.523Z,100025.44
2023-04-15T08:04:32.620Z,100040.91
2023-04-15T08:06:59.883Z,100044.31
2023-04-15T08:09:27.155Z,100045.84
2023-04-15T08:11:53.776Z,100053.69
2023-04-15T08:14:20.855Z,100048.88
2023-04-15T08:19:20.660Z,100047.38
2023-04-15T08:21:47.334Z,100042.81
2023-04-15T08:24:14.514Z,100047.56
2023-04-15T08:26:41.986Z,100057.25
2023-04-15T08:29:09.210Z,100057.16
2023-04-15T08:31:35.976Z,100059.91
2023-04-15T08:34:02.733Z,100057.72
2023-04-15T08:36:29.642Z,100054.81
2023-04-15T08:38:56.382Z,100057.56
2023-04-15T08:41:25.333Z,100060.31
2023-04-15T08:44:01.463Z,100060.44
2023-04-15T08:46:28.314Z,100055.88
2023-04-15T08:48:57.654Z,100066.28
2023-04-15T08:51:25.105Z,100059.41
2023-04-15T08:53:53.447Z,100061.06
2023-04-15T08:56:24.921Z,100064.69
2023-04-15T08:58:52.257Z,100063.19
2023-04-15T09:01:19.234Z,100064.84
2023-04-15T09:03:48.865Z,100068.31
2023-04-15T09:06:17.638Z,100073.06
2023-04-15T09:08:44.928Z,100074.63
2023-04-15T09:11:12.339Z,100072.59
2023-04-15T09:13:39.103Z,100077.19
2023-04-15T09:16:06.543Z,100078.53
2023-04-15T09:18:34.511Z,100070.59
2023-04-15T09:21:11.790Z,100077.09
2023-04-15T09:23:56.886Z,100083.28
2023-04-15T09:26:37.890Z,100081.03
2023-04-15T09:29:09.780Z,100085.94
2023-04-15T09:31:37.680Z,100085.06
2023-04-15T09:34:04.623Z,100091.81
2023-04-15T09:36:41.776Z,100095.50
2023-04-15T09:39:08.419Z,100101.16
2023-04-15T09:41:35.058Z,100101.16
2023-04-15T09:44:02.077Z,100105.59
2023-04-15T09:46:45.574Z,100095.88
2023-04-15T09:49:13.087Z,100098.44
2023-04-15T09:51:39.785Z,100093.25
2023-04-15T09:54:07.359Z,100105.31
2023-04-15T09:56:41.523Z,100109.59
2023-04-15T09:59:08.544Z,100105.06
2023-04-15T10:01:36.230Z,100113.16
2023-04-15T10:04:06.873Z,100114.31
2023-04-15T10:06:33.946Z,100110.94
2023-04-15T10:09:01.115Z,100122.19
2023-04-15T10:11:31.950Z,100116.03
2023-04-15T10:13:58.758Z,100117.00
2023-04-15T10:16:28.667Z,100129.59
2023-04-15T10:18:56.168Z,100126.91
2023-04-15T10:21:23.668Z,100122.53
2023-04-15T10:23:50.563Z,100122.47
2023-04-15T10:26:17.816Z,100128.97
2023-04-15T10:28:47.181Z,100131.50
2023-04-15T10:31:15.122Z,100128.31
2023-04-15T10:33:42.973Z,100123.75
2023-04-15T10:36:10.392Z,100125.47
2023-04-15T10:38:45.404Z,100124.84
2023-04-15T10:41:23.295Z,100134.09
2023-04-15T10:43:57.807Z,100138.63
2023-04-15T10:46:38.684Z,100130.53
2023-04-15T10:49:17.167Z,100131.50
2023-04-15T10:51:51.749Z,100138.97
2023-04-15T10:54:24.476Z,100137.53
2023-04-15T10:56:52.229Z,100136.09
2023-04-15T10:59:19.961Z,100142.81
2023-04-15T11:02:00.341Z,100136.53
2023-04-15T11:04:56.326Z,100143.78
2023-04-15T11:07:49.528Z,100139.66
2023-04-15T11:10:25.563Z,100138.44
2023-04-15T11:13:12.450Z,100140.34
2023-04-15T11:15:46.872Z,100139.81
2023-04-15T11:18:22.380Z,100152.22
2023-04-15T11:20:51.384Z,100150.72
2023-04-15T11:23:19.822Z,100160.56
2023-04-15T11:25:46.699Z,100162.56
2023-04-15T11:28:14.638Z,100163.81
2023-04-15T11:30:42.563Z,100167.09
2023-04-15T11:33:12.485Z,100174.81
2023-04-15T11:35:42.860Z,100178.31
2023-04-15T11:38:14.468Z,100174.16
2023-04-15T11:40:43.825Z,100174.31
2023-04-15T11:43:18.724Z,100176.91
2023-04-15T11:45:56.892Z,100188.19
2023-04-15T11:48:25.795Z,100190.00
2023-04-15T11:50:58.827Z,100184.09
2023-04-15T11:53:37.162Z,100190.00
2023-04-15T11:56:04.053Z,100198.16
2023-04-15T11:58:31.735Z,100203.22
2023-04-15T12:01:00.414Z,100206.88
2023-04-15T12:03:28.621Z,100196.84
2023-04-15T12:06:35.153Z,100199.19
2023-04-15T12:09:14.408Z,100210.50
2023-04-15T12:11:53.066Z,100210.81
2023-04-15T12:14:33.009Z,100211.22
2023-04-15T12:17:05.437Z,100217.56
2023-04-15T12:19:36.638Z,100212.38
2023-04-15T12:22:10.890Z,100216.66
2023-04-15T12:24:38.456Z,100220.16
2023-04-15T12:27:10.053Z,100219.41
2023-04-15T12:29:38.738Z,100229.19
2023-04-15T12:32:15.932Z,100226.66
2023-04-15T12:34:44.893Z,100228.03
2023-04-15T12:37:14.277Z,100232.81
2023-04-15T12:39:42.945Z,100236.06
2023-04-15T12:42:10.173Z,100243.69
2023-04-15T12:44:37.919Z,100243.78
2023-04-15T12:47:05.447Z,100242.16
2023-04-15T12:49:32.976Z,100239.47
2023-04-15T12:52:02.495Z,100247.25
2023-04-15T12:54:30.287Z,100239.00
2023-04-15T12:56:57.979Z,100236.88
2023-04-15T12:59:25.201Z,100242.59
2023-04-15T13:01:53.342Z,100249.38
2023-04-15T13:04:21.126Z,100245.09
2023-04-15T13:06:47.954Z,100247.38
2023-04-15T13:09:15.016Z,100251.88
2023-04-15T13:11:41.843Z,100257.59
2023-04-15T13:14:09.559Z,100253.75
2023-04-15T13:16:36.324Z,100258.81
2023-04-15T13:19:03.968Z,100263.47
2023-04-15T13:21:32.244Z,100262.13
2023-04-15T13:23:59.855Z,100268.44
2023-04-15T13:26:26.615Z,100266.13
2023-04-15T13:28:53.247Z,100270.53
2023-04-15T13:31:20.215Z,100276.69
2023-04-15T13:33:46.983Z,100272.78
2023-04-15T13:36:13.656Z,100276.09
2023-04-15T13:38:40.290Z,100276.97
2023-04-15T13:41:07.106Z,100277.00
2023-04-15T13:43:34.352Z,100282.22
2023-04-15T13:46:01.557Z,100282.69
2023-04-15T13:48:28.919Z,100283.38
2023-04-15T13:50:55.660Z,100283.75
2023-04-15T13:53:33.709Z,100289.84
2023-04-15T13:56:09.402Z,100290.53
2023-04-15T13:58:37.554Z,100294.28
2023-04-15T14:01:05.956Z,100287.06
2023-04-15T14:03:33.846Z,100292.69
2023-04-15T14:06:01.124Z,100295.28
2023-04-15T14:08:27.797Z,100299.38
2023-04-15T14:10:54.501Z,100301.25
2023-04-15T14:13:21.361Z,100302.84
2023-04-15T14:15:48.186Z,100301.94
2023-04-15T14:18:14.934Z,100306.63
2023-04-15T14:20:41.659Z,100319.91
2023-04-15T14:23:08.404Z,100325.00
2023-04-15T14:25:35.181Z,100315.53
2023-04-15T14:48:16.677Z,100351.06
2023-04-15T14:50:43.474Z,100348.13
2023-04-15T14:53:10.626Z,100353.25
2023-04-15T14:55:37.420Z,100349.03
2023-04-15T14:58:04.515Z,100356.16
2023-04-15T15:00:31.271Z,100366.44
2023-04-15T15:02:58.872Z,100372.59
2023-04-15T15:05:25.784Z,100370.78
2023-04-15T15:07:52.570Z,100371.84
2023-04-15T15:10:39.534Z,100373.25
2023-04-15T15:13:08.718Z,100376.84
2023-04-15T15:15:37.510Z,100380.72
2023-04-15T15:18:04.575Z,100378.56
2023-04-15T15:20:31.919Z,100385.00
2023-04-15T15:22:58.646Z,100380.56
2023-04-15T15:25:25.513Z,100389.13
2023-04-15T15:27:52.266Z,100389.06
2023-04-15T15:30:18.977Z,100390.53
2023-04-15T15:32:45.828Z,100388.34
2023-04-15T15:35:12.870Z,100394.34
2023-04-15T15:37:40.409Z,100392.81
2023-04-15T15:40:08.177Z,100390.97
2023-04-15T15:42:37.393Z,100398.78
2023-04-15T15:45:04.808Z,100394.34
2023-04-15T15:47:32.115Z,100393.41
2023-04-15T15:50:00.408Z,100394.19
2023-04-15T15:52:28.156Z,100398.53
2023-04-15T15:54:54.863Z,100396.00
2023-04-15T15:57:21.582Z,100395.56
2023-04-15T15:59:48.285Z,100402.06
2023-04-15T16:02:15.233Z,100411.06
2023-04-15T16:04:43.347Z,100402.28
2023-04-15T16:07:11.293Z,100413.50
2023-04-15T16:09:38.087Z,100411.19
2023-04-15T16:12:04.811Z,100413.53
2023-04-15T16:14:31.620Z,100412.78
2023-04-15T16:16:58.615Z,100411.84
2023-04-15T16:19:25.391Z,100416.34
2023-04-15T16:21:52.257Z,100420.97
2023-04-15T16:24:18.981Z,100419.81
2023-04-15T16:26:45.937Z,100422.56
2023-04-15T16:29:12.606Z,100427.03
2023-04-15T16:31:41.481Z,100437.44
2023-04-15T16:34:12.068Z,100433.31
2023-04-15T16:36:40.621Z,100434.91
2023-04-15T16:39:07.713Z,100449.06
2023-04-15T16:41:35.072Z,100450.06
2023-04-15T16:44:03.368Z,100446.34
2023-04-15T16:46:30.094Z,100445.72
2023-04-15T16:48:56.893Z,100447.50
2023-04-15T16:51:23.578Z,100444.69
2023-04-15T16:53:50.575Z,100450.00
2023-04-15T16:56:17.509Z,100448.31
2023-04-15T16:58:44.160Z,100458.63
2023-04-15T17:01:10.968Z,100444.44
2023-04-15T17:03:38.778Z,100460.50
2023-04-15T17:06:05.841Z,100463.19
2023-04-15T17:08:32.528Z,100466.59
2023-04-15T17:11:18.952Z,100474.47
2023-04-15T17:13:46.823Z,100472.78
2023-04-15T17:16:13.512Z,100480.03
2023-04-15T17:18:40.177Z,100483.69
2023-04-15T17:21:06.816Z,100488.06
2023-04-15T17:23:33.470Z,100488.97
2023-04-15T17:26:00.106Z,100490.84
2023-04-15T17:28:26.778Z,100497.00
2023-04-15T17:30:53.542Z,100491.97
2023-04-15T17:33:57.380Z,100495.31
2023-04-15T17:36:07.184Z,100501.44
2023-04-15T17:38:33.830Z,100502.34
2023-04-15T17:41:00.866Z,100506.75
2023-04-15T17:43:27.551Z,100511.09
2023-04-15T17:45:54.188Z,100514.66
2023-04-15T17:48:20.861Z,100514.66
2023-04-15T17:50:48.886Z,100522.56
2023-04-15T17:53:17.151Z,100523.47
2023-04-15T17:55:43.779Z,100520.00
2023-04-15T17:58:11.010Z,100525.38
2023-04-15T18:00:40.029Z,100527.91
2023-04-15T18:03:13.796Z,100534.28
2023-04-15T18:05:54.621Z,100537.75
2023-04-15T18:08:21.268Z,100544.72
2023-04-15T18:10:48.028Z,100538.53
2023-04-15T18:13:14.770Z,100549.03
2023-04-15T18:15:41.655Z,100553.63
2023-04-15T18:18:08.357Z,100555.47
2023-04-15T18:20:34.985Z,100555.44
2023-04-15T18:23:01.747Z,100556.22
2023-04-15T18:25:30.011Z,100562.50
2023-04-15T18:27:56.795Z,100560.53
2023-04-15T18:30:23.632Z,100562.44
2023-04-15T18:32:50.327Z,100559.81
2023-04-15T18:35:17.285Z,100572.19
2023-04-15T18:37:47.076Z,100573.94
2023-04-15T18:40:15.824Z,100577.50
2023-04-15T18:42:42.532Z,100582.69
2023-04-15T18:45:09.363Z,100589.69
2023-04-15T18:47:35.992Z,100597.63
2023-04-15T18:50:02.629Z,100596.63
2023-04-15T18:52:29.814Z,100595.72
2023-04-15T18:54:56.485Z,100595.78
2023-04-15T18:57:31.050Z,100605.59
2023-04-15T18:59:58.420Z,100606.44
2023-04-15T19:02:25.308Z,100609.22
2023-04-15T19:04:52.037Z,100616.13
2023-04-15T19:07:18.900Z,100611.72
2023-04-15T19:09:45.659Z,100617.09
2023-04-15T19:12:12.279Z,100620.75
2023-04-15T19:14:39.031Z,100617.22
2023-04-15T19:17:19.561Z,100618.19
2023-04-15T19:19:49.366Z,100626.00
2023-04-15T19:22:16.556Z,100631.28
2023-04-15T19:24:43.466Z,100633.13
2023-04-15T19:27:10.099Z,100634.84
2023-04-15T19:29:36.711Z,100633.81
2023-04-15T19:32:05.567Z,100636.47
2023-04-15T19:34:32.198Z,100635.69
2023-04-15T19:36:58.857Z,100634.16
2023-04-15T19:39:26.015Z,100656.91
2023-04-15T19:41:55.264Z,100651.50
2023-04-15T19:44:22.136Z,100649.78
2023-04-15T19:46:51.392Z,100647.06
2023-04-15T19:49:18.341Z,100647.97
2023-04-15T19:51:47.685Z,100647.88
2023-04-15T19:54:21.258Z,100648.88
2023-04-15T19:56:48.005Z,100652.38
2023-04-15T19:59:14.713Z,100647.22
2023-04-15T20:01:41.693Z,100647.38
2023-04-15T20:04:12.211Z,100654.38
2023-04-15T20:06:39.022Z,100654.41
2023-04-15T20:09:08.336Z,100655.22
2023-04-15T20:12:46.011Z,100655.22
2023-04-15T20:14:27.825Z,100650.00
2023-04-15T20:16:57.329Z,100644.66
2023-04-15T20:19:36.478Z,100647.34
2023-04-15T20:22:06.036Z,100655.41
2023-04-15T20:24:32.754Z,100652.78
2023-04-15T20:26:59.699Z,100659.59
2023-04-15T20:29:26.680Z,100658.81
2023-04-15T20:31:56.590Z,100658.84
2023-04-15T20:37:07.888Z,100662.31
2023-04-15T20:39:36.156Z,100665.94
2023-04-15T20:42:12.732Z,100665.06
2023-04-15T20:44:40.350Z,100670.47
2023-04-15T20:47:10.928Z,100661.78
2023-04-15T20:49:47.434Z,100667.88
2023-04-15T20:52:14.347Z,100666.94
2023-04-15T20:54:41.563Z,100670.31
2023-04-15T20:57:08.356Z,100666.81
2023-04-15T20:59:54.896Z,100672.22
2023-04-15T21:02:23.185Z,100665.22
2023-04-15T21:04:51.725Z,100673.00
2023-04-15T21:07:18.377Z,100676.69
2023-04-15T21:09:45.415Z,100682.00
2023-04-15T21:12:15.449Z,100678.50
2023-04-15T21:14:42.109Z,100679.34
2023-04-15T21:17:11.183Z,100681.97
2023-04-15T21:19:38.331Z,100686.41
2023-04-15T21:22:05.050Z,100691.69
2023-04-15T21:24:32.996Z,100692.56
2023-04-15T21:27:02.576Z,100696.94
2023-04-15T21:29:29.589Z,100697.81
2023-04-15T21:31:56.807Z,100696.03
2023-04-15T21:34:43.860Z,100700.53
2023-04-15T21:37:10.942Z,100705.63
2023-04-15T21:39:37.661Z,100698.88
2023-04-15T21:42:04.697Z,100709.47
2023-04-15T21:44:43.250Z,100711.19
2023-04-15T21:47:11.574Z,100703.25
2023-04-15T21:49:38.471Z,100710.25
2023-04-15T21:52:07.810Z,100714.66
2023-04-15T21:54:36.906Z,100727.84
2023-04-15T21:57:08.004Z,100719.09
2023-04-15T21:59:34.735Z,100736.72
2023-04-15T22:02:01.603Z,100725.13
2023-04-15T22:04:28.337Z,100731.25
2023-04-15T22:06:59.756Z,100737.38
2023-04-15T22:09:28.631Z,100739.97
2023-04-15T22:11:55.407Z,100734.69
2023-04-15T22:14:23.906Z,100744.50
2023-04-15T22:16:50.992Z,100743.66
2023-04-15T22:19:17.983Z,100743.72
2023-04-15T22:21:47.749Z,100746.28
2023-04-15T22:24:39.005Z,100747.19
2023-04-15T22:27:02.136Z,100751.44
2023-04-15T22:29:29.323Z,100753.25
2023-04-15T22:31:56.131Z,100754.19
2023-04-15T22:34:22.925Z,100756.81
2023-04-15T22:36:53.428Z,100764.72
2023-04-15T22:39:20.526Z,100761.13
2023-04-15T22:41:47.440Z,100762.88
2023-04-15T22:44:14.055Z,100762.94
2023-04-15T22:46:40.805Z,100768.97
2023-04-15T22:49:08.637Z,100773.50
2023-04-15T22:51:44.050Z,100778.75
2023-04-15T22:54:10.921Z,100773.53
2023-04-15T22:56:37.712Z,100771.72
2023-04-15T22:59:04.972Z,100778.75
2023-04-15T23:01:32.402Z,100779.69
2023-04-15T23:04:04.675Z,100786.69
2023-04-15T23:06:36.442Z,100791.06
2023-04-15T23:09:03.154Z,100790.22
2023-04-15T23:11:30.028Z,100792.03
2023-04-15T23:13:56.704Z,100791.13
2023-04-15T23:16:23.515Z,100793.81
2023-04-15T23:18:51.385Z,100795.38
2023-04-15T23:21:18.092Z,100795.47
2023-04-15T23:23:44.863Z,100798.91
2023-04-15T23:26:13.224Z,100792.94
2023-04-15T23:28:39.833Z,100795.56
2023-04-15T23:31:13.015Z,100800.00
2023-04-15T23:33:40.960Z,100800.84
2023-04-15T23:36:07.796Z,100801.78
2023-04-15T23:38:34.445Z,100799.88
2023-04-15T23:41:01.197Z,100802.59
2023-04-15T23:43:27.852Z,100801.66
2023-04-15T23:45:54.546Z,100807.84
2023-04-15T23:48:23.570Z,100807.13
2023-04-15T23:50:50.555Z,100804.44
2023-04-15T23:53:17.596Z,100808.75
2023-04-15T23:55:44.292Z,100812.25
2023-04-15T23:58:10.931Z,100806.06
